Time;durP1;ratioP1;P1;durP2;ratioP2;P2;SDS_P1;SDS_P2;PMS_P1;PMS_P2;Temp;Humidity;BMP_temperature;BMP_pressure;BME280_temperature;BME280_humidity;BME280_pressure;Samples;Min_cycle;Max_cycle;Signal;HPM_P1;HPM_P2
2020/12/16 00:00:09;;;;;;;46.13;26.63;;;6.70;99.90;;;;;;4959450;29;20121;-94
2020/12/16 00:02:38;;;;;;;46.65;25.98;;;6.70;99.90;;;;;;4948299;28;20027;-95
2020/12/16 00:05:09;;;;;;;48.50;24.55;;;6.80;99.90;;;;;;4976728;28;20042;-95
2020/12/16 00:07:36;;;;;;;41.78;22.95;;;6.80;99.90;;;;;;4946054;29;20324;-95
2020/12/16 00:10:07;;;;;;;41.40;24.27;;;6.90;99.90;;;;;;4949534;28;20022;-96
2020/12/16 00:12:41;;;;;;;44.58;25.65;;;6.80;99.90;;;;;;4967258;28;20022;-95
2020/12/16 00:15:14;;;;;;;46.30;24.45;;;6.90;99.90;;;;;;4966415;28;20062;-95
2020/12/16 00:17:43;;;;;;;42.72;24.25;;;6.90;99.90;;;;;;4964896;29;20050;-96
2020/12/16 00:20:11;;;;;;;34.60;20.67;;;6.90;99.90;;;;;;4957729;28;20031;-95
2020/12/16 00:22:39;;;;;;;33.50;20.42;;;6.90;99.90;;;;;;4954917;28;20016;-96
2020/12/16 00:25:06;;;;;;;44.80;21.25;;;7.00;99.90;;;;;;4952787;28;20047;-95
2020/12/16 00:27:37;;;;;;;30.80;18.05;;;7.00;99.90;;;;;;4945071;29;20059;-96
2020/12/16 00:30:19;;;;;;;31.67;19.35;;;7.10;99.90;;;;;;4946690;29;20140;-96
2020/12/16 00:32:49;;;;;;;30.38;18.88;;;7.10;99.90;;;;;;4940400;29;20784;-95
2020/12/16 00:35:16;;;;;;;32.00;18.20;;;7.10;99.90;;;;;;4946395;29;20095;-96
2020/12/16 00:37:43;;;;;;;25.42;15.93;;;7.10;99.90;;;;;;4940714;29;20040;-96
2020/12/16 00:40:36;;;;;;;31.45;16.77;;;7.20;99.90;;;;;;4958472;29;20031;-96
2020/12/16 00:43:02;;;;;;;29.55;17.20;;;7.20;99.90;;;;;;4958912;28;20026;-95
2020/12/16 00:45:28;;;;;;;26.80;16.55;;;7.20;99.90;;;;;;4978799;28;20034;-94
2020/12/16 00:47:53;;;;;;;29.80;17.92;;;7.20;99.90;;;;;;4950368;29;20043;-96
2020/12/16 00:50:19;;;;;;;25.55;16.05;;;7.20;99.90;;;;;;4959495;28;20023;-96
2020/12/16 00:52:45;;;;;;;25.08;16.90;;;7.20;99.90;;;;;;4977291;28;20023;-95
2020/12/16 00:55:15;;;;;;;24.70;15.43;;;7.20;99.90;;;;;;4947334;28;20396;-96
2020/12/16 00:57:40;;;;;;;28.50;16.67;;;7.30;99.90;;;;;;4962187;28;20027;-96
2020/12/16 01:00:09;;;;;;;23.00;14.30;;;7.20;99.90;;;;;;4943594;29;20476;-95
2020/12/16 01:02:42;;;;;;;25.52;16.50;;;7.20;99.90;;;;;;4953965;28;20050;-96
2020/12/16 01:05:08;;;;;;;24.67;15.32;;;7.20;99.90;;;;;;4945993;29;20019;-96
2020/12/16 01:07:39;;;;;;;22.40;14.48;;;7.20;99.90;;;;;;4943290;29;20480;-96
2020/12/16 01:10:06;;;;;;;21.63;14.18;;;7.20;99.90;;;;;;4927276;29;20063;-96
2020/12/16 01:12:37;;;;;;;27.05;15.27;;;7.20;99.90;;;;;;4932414;28;20093;-96
2020/12/16 01:15:06;;;;;;;24.88;14.75;;;7.20;99.90;;;;;;4946960;29;20127;-96
2020/12/16 01:17:32;;;;;;;28.25;15.95;;;7.20;99.90;;;;;;4957743;29;20055;-95
2020/12/16 01:19:58;;;;;;;24.45;14.90;;;7.20;99.90;;;;;;4963020;29;20067;-94
2020/12/16 01:22:24;;;;;;;20.77;14.38;;;7.20;99.90;;;;;;4957031;28;20437;-96
2020/12/16 01:24:49;;;;;;;21.27;14.02;;;7.30;99.90;;;;;;4947037;29;20027;-96
2020/12/16 01:27:15;;;;;;;21.30;14.82;;;7.20;99.90;;;;;;4944137;29;20028;-93
2020/12/16 01:29:41;;;;;;;20.77;14.50;;;7.30;99.90;;;;;;4904087;29;20120;-93
2020/12/16 01:32:06;;;;;;;20.98;14.05;;;7.20;99.90;;;;;;4915585;29;20104;-92
2020/12/16 01:34:32;;;;;;;22.65;14.65;;;7.30;99.90;;;;;;4880263;29;20026;-92
2020/12/16 01:37:01;;;;;;;19.50;13.00;;;7.30;99.90;;;;;;4851987;29;20041;-93
2020/12/16 01:39:28;;;;;;;22.25;14.68;;;7.30;99.90;;;;;;4867700;29;20098;-95
2020/12/16 01:41:54;;;;;;;23.23;14.88;;;7.30;99.90;;;;;;4867717;29;20049;-94
2020/12/16 01:44:24;;;;;;;24.88;14.15;;;7.30;99.90;;;;;;4870194;29;20113;-95
2020/12/16 01:46:56;;;;;;;20.90;13.33;;;7.30;99.90;;;;;;4876310;29;20088;-95
2020/12/16 01:49:29;;;;;;;23.73;14.52;;;7.30;99.90;;;;;;4887792;29;20345;-94
2020/12/16 01:51:58;;;;;;;23.65;13.25;;;7.30;99.90;;;;;;5410271;23;20031;-93
2020/12/16 01:54:29;;;;;;;23.92;14.07;;;7.40;99.90;;;;;;5039742;23;20039;-91
2020/12/16 01:56:58;;;;;;;19.30;13.57;;;7.40;99.90;;;;;;4947284;28;20027;-96
2020/12/16 01:59:28;;;;;;;19.40;12.82;;;7.40;99.90;;;;;;5363591;23;20054;-86
2020/12/16 02:01:55;;;;;;;19.00;12.80;;;7.50;99.90;;;;;;5100056;23;20035;-93
2020/12/16 02:04:24;;;;;;;18.70;12.18;;;7.40;99.90;;;;;;4965586;28;20015;-93
2020/12/16 02:06:55;;;;;;;18.92;12.43;;;7.40;99.90;;;;;;4981207;28;20025;-94
2020/12/16 02:09:21;;;;;;;19.17;12.15;;;7.40;99.90;;;;;;5241484;23;21544;31
2020/12/16 02:11:54;;;;;;;18.67;12.02;;;7.40;99.90;;;;;;4971737;23;20031;-83
2020/12/16 02:14:22;;;;;;;21.33;13.32;;;7.40;99.90;;;;;;5124235;23;20053;-84
2020/12/16 02:16:47;;;;;;;28.63;14.77;;;7.30;99.90;;;;;;4985966;28;20033;-92
2020/12/16 02:19:20;;;;;;;19.77;13.20;;;7.30;99.90;;;;;;4985731;28;20070;-95
2020/12/16 02:21:52;;;;;;;21.30;12.80;;;7.30;99.90;;;;;;4985806;28;20010;-92
2020/12/16 02:24:21;;;;;;;19.90;13.00;;;7.30;99.90;;;;;;4985725;28;20026;-91
2020/12/16 02:26:47;;;;;;;24.15;13.80;;;7.30;99.90;;;;;;4984865;28;20026;-94
2020/12/16 02:29:13;;;;;;;21.80;13.70;;;7.30;99.90;;;;;;4984876;28;20046;-95
2020/12/16 02:31:40;;;;;;;23.08;14.13;;;7.30;99.90;;;;;;4984477;28;20046;-94
2020/12/16 02:34:06;;;;;;;19.60;12.23;;;7.30;99.90;;;;;;4978001;28;20003;-95
2020/12/16 02:37:43;;;;;;;25.55;12.80;;;7.30;99.90;;;;;;5024791;23;20061;-87
2020/12/16 03:04:32;;;;;;;22.55;12.85;;;6.90;99.90;;;;;;4963730;23;20120;-96
2020/12/16 03:07:00;;;;;;;23.92;14.05;;;6.90;99.90;;;;;;4926117;28;20027;-96
2020/12/16 03:09:32;;;;;;;22.33;14.60;;;6.90;99.90;;;;;;4926249;29;20035;-96
2020/12/16 03:12:02;;;;;;;23.67;15.13;;;6.90;99.90;;;;;;4903643;29;20085;-96
2020/12/16 03:14:28;;;;;;;24.27;13.20;;;6.80;99.90;;;;;;5201603;23;20050;-94
2020/12/16 03:16:59;;;;;;;22.63;13.55;;;6.80;99.90;;;;;;4963913;28;20028;-94
2020/12/16 03:19:25;;;;;;;24.17;14.73;;;6.80;99.90;;;;;;4963470;28;20021;-95
2020/12/16 03:21:54;;;;;;;23.40;14.57;;;6.80;99.90;;;;;;4963297;28;20031;-94
2020/12/16 03:34:53;;;;;;;;;;;;;;;;;;;;;
2020/12/16 03:37:24;;;;;;;24.73;15.10;;;6.80;99.90;;;;;;4971860;29;20110;-94
2020/12/16 03:39:56;;;;;;;26.20;15.60;;;6.90;99.90;;;;;;4945966;28;20023;-95
2020/12/16 03:42:28;;;;;;;26.48;16.48;;;6.90;99.90;;;;;;4957832;28;20329;-96
2020/12/16 03:44:53;;;;;;;25.75;15.10;;;6.90;99.90;;;;;;4952193;29;20042;-94
2020/12/16 03:47:19;;;;;;;26.92;16.52;;;6.90;99.90;;;;;;4946829;29;20031;-93
2020/12/16 03:49:45;;;;;;;29.73;15.57;;;7.00;99.90;;;;;;4944546;29;20027;-95
2020/12/16 03:52:12;;;;;;;27.90;17.63;;;6.90;99.90;;;;;;4944891;29;20049;-96
2020/12/16 03:54:38;;;;;;;26.98;14.85;;;6.90;99.90;;;;;;4945767;29;20127;-96
2020/12/16 03:57:04;;;;;;;25.77;15.00;;;6.90;99.90;;;;;;4928958;29;20472;-96
2020/12/16 03:59:32;;;;;;;23.00;14.55;;;6.90;99.90;;;;;;4945919;29;20023;-96
2020/12/16 04:02:22;;;;;;;25.40;14.77;;;6.90;99.90;;;;;;4948852;29;20043;-96
2020/12/16 04:04:53;;;;;;;23.92;13.27;;;6.80;99.90;;;;;;4956876;28;20062;-96
2020/12/16 04:07:46;;;;;;;25.43;15.83;;;6.80;99.90;;;;;;4968128;29;20031;-96
2020/12/16 04:10:40;;;;;;;22.20;13.75;;;6.80;99.90;;;;;;4950063;29;20027;-96
2020/12/16 04:57:41;;;;;;;27.20;16.25;;;6.60;99.90;;;;;;5699094;23;20031;-87
2020/12/16 05:00:10;;;;;;;29.23;16.55;;;6.60;99.90;;;;;;4895892;29;20033;-94
2020/12/16 05:02:39;;;;;;;27.63;16.10;;;6.60;99.90;;;;;;4920524;29;20029;-96
2020/12/16 05:05:04;;;;;;;26.13;15.45;;;6.50;99.90;;;;;;4920333;29;20041;-95
2020/12/16 05:07:31;;;;;;;29.67;17.42;;;6.40;99.90;;;;;;4920688;29;20085;-96
2020/12/16 05:10:03;;;;;;;27.63;17.50;;;6.50;99.90;;;;;;4901936;29;20121;-96
2020/12/16 05:15:04;;;;;;;27.48;15.85;;;6.30;99.90;;;;;;5449394;23;20054;-94
2020/12/16 05:17:30;;;;;;;28.73;17.17;;;6.30;99.90;;;;;;4967572;28;20045;-94
2020/12/16 05:19:59;;;;;;;31.90;18.10;;;6.20;99.90;;;;;;4966800;28;20089;-95
2020/12/16 05:22:28;;;;;;;39.88;18.52;;;6.10;99.90;;;;;;4984741;28;20055;-94
2020/12/16 05:24:56;;;;;;;32.58;17.30;;;6.10;99.90;;;;;;4950556;28;20038;-94
2020/12/16 05:27:33;;;;;;;29.92;17.15;;;6.00;99.90;;;;;;4923389;29;20446;-95
2020/12/16 05:30:04;;;;;;;30.55;17.58;;;6.00;99.90;;;;;;4922089;29;20555;-94
2020/12/16 05:32:35;;;;;;;35.20;18.90;;;6.10;99.90;;;;;;4907151;29;20122;-95
2020/12/16 05:35:24;;;;;;;;;;;6.20;99.90;;;;;;4909064;29;20032;-95
2020/12/16 05:37:50;;;;;;;28.52;17.15;;;6.20;99.90;;;;;;4901988;29;19938;-96
2020/12/16 05:40:20;;;;;;;34.58;19.45;;;6.10;99.90;;;;;;4922601;28;20258;-96
2020/12/16 05:42:51;;;;;;;31.65;18.25;;;6.10;99.90;;;;;;4907466;29;20047;-94
2020/12/16 05:45:23;;;;;;;32.25;16.98;;;6.20;99.90;;;;;;4923292;28;20027;-95
2020/12/16 05:48:20;;;;;;;29.52;16.23;;;6.30;99.90;;;;;;4939262;28;20033;-95
2020/12/16 05:50:53;;;;;;;28.85;16.25;;;6.30;99.90;;;;;;4852509;29;20045;-95
2020/12/16 05:53:31;;;;;;;31.08;15.90;;;6.30;99.90;;;;;;4867997;29;20030;-96
2020/12/16 05:56:04;;;;;;;27.45;15.50;;;6.40;99.90;;;;;;4852127;29;20034;-96
2020/12/16 05:58:34;;;;;;;24.80;14.98;;;6.30;99.90;;;;;;4877868;29;20037;-96
2020/12/16 06:01:08;;;;;;;26.58;14.40;;;6.40;99.90;;;;;;4918662;29;20037;-95
2020/12/16 06:04:03;;;;;;;30.40;16.58;;;6.30;99.90;;;;;;4922835;29;20092;-95
2020/12/16 06:07:04;;;;;;;;;;;;;;;;;;;;;
2020/12/16 06:09:32;;;;;;;26.98;15.55;;;6.40;99.90;;;;;;4911725;29;20100;-96
2020/12/16 06:12:06;;;;;;;26.50;15.00;;;6.50;99.90;;;;;;4909375;29;20039;-95
2020/12/16 06:14:35;;;;;;;26.50;14.35;;;6.40;99.90;;;;;;4913318;29;20052;-96
2020/12/16 06:17:12;;;;;;;24.92;14.68;;;6.40;99.90;;;;;;4916000;29;20108;-96
2020/12/16 06:19:44;;;;;;;26.52;15.45;;;6.40;99.90;;;;;;4881620;29;20029;-96
2020/12/16 06:22:11;;;;;;;33.88;16.90;;;6.40;99.90;;;;;;4905410;29;20060;-96
2020/12/16 06:27:20;;;;;;;28.45;14.93;;;6.50;99.90;;;;;;5431613;23;20042;-96
2020/12/16 06:30:03;;;;;;;26.20;15.85;;;6.40;99.90;;;;;;5019708;28;20018;-96
2020/12/16 06:32:38;;;;;;;31.30;14.98;;;6.40;99.90;;;;;;4997240;28;20114;-95
2020/12/16 06:35:09;;;;;;;32.53;18.17;;;6.40;99.90;;;;;;4970365;28;20047;-96
2020/12/16 06:37:39;;;;;;;27.83;16.42;;;6.40;99.90;;;;;;4969369;28;20027;-96
2020/12/16 06:40:09;;;;;;;31.98;17.30;;;6.40;99.90;;;;;;4973293;28;20027;-95
2020/12/16 06:42:36;;;;;;;27.02;16.40;;;6.40;99.90;;;;;;4979245;28;20026;-95
2020/12/16 06:45:17;;;;;;;29.10;16.10;;;6.30;99.90;;;;;;4970252;28;20125;-95
2020/12/16 06:47:48;;;;;;;29.90;15.30;;;6.30;99.90;;;;;;4947402;28;20040;-93
2020/12/16 06:50:29;;;;;;;29.38;16.58;;;6.30;99.90;;;;;;5098342;23;20047;-94
2020/12/16 06:53:22;;;;;;;27.90;15.80;;;6.20;99.90;;;;;;4960016;28;20096;-96
2020/12/16 07:12:01;;;;;;;;;;;;;;;;;;;;;
2020/12/16 07:14:57;;;;;;;;;;;;;;;;;;;;;
2020/12/16 07:17:33;;;;;;;34.80;19.67;;;6.00;99.90;;;;;;4969644;29;20362;-96
2020/12/16 07:20:32;;;;;;;53.38;20.42;;;6.00;99.90;;;;;;4964498;28;20023;-96
2020/12/16 07:23:04;;;;;;;37.80;20.35;;;6.10;99.90;;;;;;4961983;29;20044;-96
2020/12/16 07:25:36;;;;;;;37.60;20.13;;;6.20;99.90;;;;;;4918827;29;20039;-96
2020/12/16 07:28:09;;;;;;;37.15;19.75;;;6.20;99.90;;;;;;4928398;29;20036;-95
2020/12/16 07:30:59;;;;;;;35.33;18.35;;;6.20;99.90;;;;;;4910792;29;20067;-96
2020/12/16 07:33:34;;;;;;;33.22;18.15;;;6.20;99.90;;;;;;4928008;29;20124;-95
2020/12/16 07:36:10;;;;;;;31.63;16.58;;;6.20;99.90;;;;;;4914807;29;20028;-95
2020/12/16 07:39:03;;;;;;;30.15;16.92;;;6.20;99.90;;;;;;4915145;29;20103;-96
2020/12/16 07:41:45;;;;;;;;;;;;;;;;;;;;;
2020/12/16 07:44:14;;;;;;;33.15;16.35;;;6.20;99.90;;;;;;4920024;29;20108;-95
2020/12/16 07:50:22;;;;;;;31.85;15.85;;;6.20;99.90;;;;;;5048947;23;20046;-94
2020/12/16 07:53:06;;;;;;;32.47;16.92;;;6.30;99.90;;;;;;4944354;28;20033;-94
2020/12/16 07:56:06;;;;;;;;;;;;;;;;;;;;;
2020/12/16 07:58:53;;;;;;;38.17;17.67;;;6.30;99.90;;;;;;4966721;29;20094;-96
2020/12/16 08:01:28;;;;;;;25.88;15.98;;;6.30;99.90;;;;;;4984718;28;20047;-96
2020/12/16 08:03:55;;;;;;;28.23;15.35;;;6.30;99.90;;;;;;4943999;29;20028;-96
2020/12/16 08:06:27;;;;;;;31.10;17.95;;;6.40;99.90;;;;;;4973769;28;20042;-96
2020/12/16 08:08:56;;;;;;;27.73;16.73;;;6.30;99.90;;;;;;4972070;28;20412;-96
2020/12/16 08:11:27;;;;;;;29.90;16.33;;;6.30;99.90;;;;;;4956152;28;20058;-96
2020/12/16 08:14:07;;;;;;;28.13;15.50;;;6.30;99.90;;;;;;4977455;28;20023;-96
2020/12/16 08:16:46;;;;;;;;;;;;;;;;;;;;;
2020/12/16 08:19:18;;;;;;;30.63;16.40;;;6.40;99.90;;;;;;4977724;28;20063;-94
2020/12/16 08:22:19;;;;;;;32.20;17.88;;;6.50;99.90;;;;;;4941961;28;20035;-86
2020/12/16 08:25:00;;;;;;;36.72;18.00;;;6.70;99.90;;;;;;4947463;28;20103;-87
2020/12/16 08:27:47;;;;;;;;;;;;;;;;;;;;;
2020/12/16 08:37:08;;;;;;;26.95;15.65;;;7.10;99.90;;;;;;4982991;28;20243;-91
2020/12/16 08:39:38;;;;;;;25.92;14.45;;;7.10;99.90;;;;;;4961426;28;20059;-91
2020/12/16 08:42:35;;;;;;;25.13;14.38;;;7.20;99.90;;;;;;4973036;28;20035;-94
2020/12/16 08:45:11;;;;;;;33.83;18.00;;;7.40;99.90;;;;;;4947403;29;20053;-92
2020/12/16 08:51:41;;;;;;;20.45;12.57;;;7.50;99.90;;;;;;4860918;29;20094;-89
2020/12/16 08:54:38;;;;;;;20.73;12.82;;;7.50;99.90;;;;;;5006535;23;20111;-89
2020/12/16 08:57:09;;;;;;;20.92;13.02;;;7.60;99.90;;;;;;4944976;28;20055;-91
2020/12/16 10:54:23;;;;;;;;;;;;;;;;;;;;;
2020/12/16 10:59:51;;;;;;;;;;;;;;;;;;;;;
2020/12/16 11:02:29;;;;;;;16.40;10.27;;;9.90;99.90;;;;;;5175426;23;20093;-92
2020/12/16 12:14:06;;;;;;;10.50;7.07;;;11.40;99.90;;;;;;4949900;29;20138;-95
2020/12/16 12:16:34;;;;;;;12.88;7.47;;;11.40;99.90;;;;;;4932209;29;20032;-96
2020/12/16 12:19:13;;;;;;;10.60;7.85;;;11.40;99.90;;;;;;4926635;29;20098;-91
2020/12/16 12:22:03;;;;;;;11.15;7.50;;;11.40;99.90;;;;;;4808461;29;20060;-95
2020/12/16 12:25:29;;;;;;;9.25;7.25;;;11.20;99.90;;;;;;4903022;29;20043;-90
2020/12/16 12:27:56;;;;;;;10.13;6.97;;;11.30;99.90;;;;;;4908046;29;20134;-92
2020/12/16 12:30:39;;;;;;;;;;;;;;;;;;;;;
2020/12/16 12:33:24;;;;;;;10.55;6.82;;;11.30;99.90;;;;;;4913000;29;20036;-88
2020/12/16 12:36:11;;;;;;;11.55;7.65;;;11.40;99.90;;;;;;4907648;29;20031;-89
2020/12/16 12:38:43;;;;;;;9.05;6.32;;;11.50;99.90;;;;;;4913447;29;20468;-94
2020/12/16 12:41:47;;;;;;;10.35;7.68;;;11.60;99.90;;;;;;4907059;29;20047;-92
2020/12/16 12:44:32;;;;;;;7.90;6.07;;;11.60;99.90;;;;;;4907955;29;20432;-94
2020/12/16 12:47:46;;;;;;;;;;;;;;;;;;;;;
2020/12/16 12:50:19;;;;;;;10.32;8.38;;;11.70;99.90;;;;;;4844583;29;20081;-96
2020/12/16 12:59:52;;;;;;;11.38;7.20;;;11.70;99.90;;;;;;5296170;23;20086;-91
2020/12/16 13:15:46;;;;;;;9.70;6.88;;;11.70;99.90;;;;;;5564453;23;20126;-96
2020/12/16 13:40:17;;;;;;;10.68;7.22;;;11.70;99.90;;;;;;5045241;23;20055;-96
2020/12/16 13:42:49;;;;;;;9.35;6.72;;;11.60;99.90;;;;;;4934427;29;20064;-96
2020/12/16 13:45:17;;;;;;;12.77;7.07;;;11.60;99.90;;;;;;4954312;29;20074;-95
2020/12/16 13:47:57;;;;;;;;;;;;;;;;;;;;;
2020/12/16 13:50:23;;;;;;;8.50;6.78;;;11.60;99.90;;;;;;5262028;23;20066;-91
2020/12/16 13:59:09;;;;;;;8.07;6.13;;;11.70;99.90;;;;;;4971284;28;20043;-96
2020/12/16 14:05:22;;;;;;;9.30;7.00;;;11.70;99.90;;;;;;4910249;29;20052;-89
2020/12/16 14:07:50;;;;;;;12.65;7.10;;;11.80;99.90;;;;;;4871149;29;20025;-91
2020/12/16 14:10:19;;;;;;;9.35;6.43;;;11.70;99.90;;;;;;4873579;29;20049;-89
2020/12/16 14:12:50;;;;;;;11.18;6.93;;;11.70;99.90;;;;;;4850080;29;20037;-88
2020/12/16 14:15:46;;;;;;;9.95;7.13;;;11.60;99.90;;;;;;4862113;29;20033;-88
2020/12/16 14:18:59;;;;;;;10.82;6.70;;;11.50;99.90;;;;;;4852484;29;20037;-88
2020/12/16 14:21:06;;;;;;;12.32;7.50;;;11.40;99.90;;;;;;4845725;29;20116;-87
2020/12/16 14:23:36;;;;;;;9.88;7.22;;;11.30;99.90;;;;;;4867857;29;20490;-88
2020/12/16 14:26:05;;;;;;;11.02;7.40;;;11.20;99.90;;;;;;4890768;29;20441;-89
2020/12/16 14:28:34;;;;;;;8.95;6.78;;;11.20;99.90;;;;;;4913256;29;20043;-88
2020/12/16 14:31:12;;;;;;;;;;;;;;;;;;;;;
2020/12/16 14:34:40;;;;;;;;;;;;;;;;;;;;;
2020/12/16 14:43:59;;;;;;;10.75;7.63;;;11.10;99.90;;;;;;4835982;29;20047;-87
2020/12/16 14:46:27;;;;;;;17.23;7.03;;;11.20;99.90;;;;;;4835338;29;20027;-87
2020/12/16 14:48:56;;;;;;;9.38;7.13;;;11.10;99.90;;;;;;4850520;23;20076;-87
2020/12/16 14:51:38;;;;;;;12.40;6.88;;;11.20;99.90;;;;;;4976547;28;20109;-87
2020/12/16 14:54:04;;;;;;;9.10;5.55;;;11.20;99.90;;;;;;5045077;23;20044;-88
2020/12/16 14:56:31;;;;;;;12.65;6.47;;;11.30;99.90;;;;;;4920165;29;20052;-87
2020/12/16 14:59:05;;;;;;;7.35;5.57;;;11.30;99.90;;;;;;4942061;29;20023;-88
2020/12/16 15:02:41;;;;;;;;;;;;;;;;;;;;;
2020/12/16 16:25:41;;;;;;;19.27;9.73;;;9.40;99.90;;;;;;4929143;29;20096;-94
2020/12/16 16:28:40;;;;;;;;;;;;;;;;;;;;;
2020/12/16 16:34:42;;;;;;;14.15;9.80;;;9.30;99.90;;;;;;4901927;29;20120;-95
2020/12/16 16:37:21;;;;;;;15.23;10.15;;;9.30;99.90;;;;;;4889255;29;20040;-95
2020/12/16 16:39:51;;;;;;;19.67;10.32;;;9.20;99.90;;;;;;4895705;29;20033;-94
2020/12/16 17:27:37;;;;;;;16.70;9.15;;;9.20;99.90;;;;;;5863510;23;20026;-92
2020/12/16 17:30:17;;;;;;;16.42;10.43;;;9.20;99.90;;;;;;4962913;29;20036;-92
2020/12/16 17:32:47;;;;;;;16.70;10.98;;;9.20;99.90;;;;;;4954898;29;20040;-91
2020/12/16 17:35:39;;;;;;;19.45;12.27;;;9.30;99.90;;;;;;4969836;29;20118;-92
2020/12/16 17:38:37;;;;;;;16.63;10.32;;;9.30;99.90;;;;;;4971260;29;20027;-91
2020/12/16 17:41:10;;;;;;;16.35;10.82;;;9.40;99.90;;;;;;4932305;28;20048;-91
2020/12/16 17:43:52;;;;;;;14.93;10.40;;;9.40;99.90;;;;;;4918507;29;20047;-92
2020/12/16 17:46:26;;;;;;;17.08;10.75;;;9.40;99.90;;;;;;4887571;29;20163;-91
2020/12/16 17:49:11;;;;;;;15.20;10.23;;;9.40;99.90;;;;;;4869400;29;20049;-93
2020/12/16 17:52:09;;;;;;;20.17;11.43;;;9.30;99.90;;;;;;4898314;29;20022;-92
2020/12/16 17:54:39;;;;;;;14.80;10.30;;;9.10;99.90;;;;;;4897425;29;20052;-93
2020/12/16 17:57:05;;;;;;;17.65;11.45;;;9.00;99.90;;;;;;4906625;29;20186;-91
2020/12/16 17:59:34;;;;;;;17.00;10.98;;;9.00;99.90;;;;;;4905400;29;20040;-92
2020/12/16 18:02:01;;;;;;;17.75;12.18;;;8.90;99.90;;;;;;4910658;29;20032;-91
2020/12/16 18:04:30;;;;;;;19.92;12.50;;;8.80;99.90;;;;;;4895102;29;20452;-91
2020/12/16 18:07:05;;;;;;;18.70;12.68;;;8.80;99.90;;;;;;4912048;29;20044;-92
2020/12/16 18:09:33;;;;;;;20.15;13.50;;;8.70;99.90;;;;;;4849335;29;20044;-93
2020/12/16 18:12:12;;;;;;;18.27;12.98;;;8.70;99.90;;;;;;4912673;29;20667;-92
2020/12/16 18:14:45;;;;;;;19.42;11.35;;;8.70;99.90;;;;;;4926851;29;20029;-92
2020/12/16 18:17:20;;;;;;;18.92;12.23;;;8.60;99.90;;;;;;4901141;29;20060;-92
2020/12/16 18:19:46;;;;;;;19.65;12.70;;;8.60;99.90;;;;;;4928235;29;20035;-92
2020/12/16 18:22:13;;;;;;;19.48;12.05;;;8.60;99.90;;;;;;4945801;29;20044;-91
2020/12/16 18:24:54;;;;;;;20.00;13.10;;;8.50;99.90;;;;;;4960769;29;20023;-90
2020/12/16 18:27:28;;;;;;;20.42;12.93;;;8.50;99.90;;;;;;4932831;29;20044;-92
2020/12/16 18:29:57;;;;;;;22.00;12.95;;;8.40;99.90;;;;;;4951820;29;20483;-89
2020/12/16 18:32:24;;;;;;;19.83;12.15;;;8.40;99.90;;;;;;4962732;29;20031;-91
2020/12/16 18:34:52;;;;;;;21.50;13.80;;;8.40;99.90;;;;;;4966390;29;20027;-90
2020/12/16 18:37:19;;;;;;;25.17;13.52;;;8.50;99.90;;;;;;4951068;29;20047;-90
2020/12/16 18:39:51;;;;;;;20.92;13.73;;;8.40;99.90;;;;;;4938114;29;20036;-93
2020/12/16 18:42:19;;;;;;;21.92;14.20;;;8.40;99.90;;;;;;4953292;29;20024;-91
2020/12/16 18:45:13;;;;;;;23.55;14.82;;;8.40;99.90;;;;;;4945050;28;20039;-89
2020/12/16 18:47:40;;;;;;;22.63;13.85;;;8.40;99.90;;;;;;4971906;28;20039;-91
2020/12/16 18:50:14;;;;;;;19.75;13.35;;;8.30;99.90;;;;;;4964355;28;20042;-91
2020/12/16 18:52:54;;;;;;;22.83;14.38;;;8.30;99.90;;;;;;4979132;28;20055;-92
2020/12/16 18:55:30;;;;;;;21.52;14.57;;;8.30;99.90;;;;;;4952585;29;20046;-91
2020/12/16 18:58:06;;;;;;;22.65;14.52;;;8.20;99.90;;;;;;4942457;29;20070;-92
2020/12/16 19:01:00;;;;;;;;;;;;;;;;;;;;;
2020/12/16 19:03:36;;;;;;;24.48;16.13;;;8.10;99.90;;;;;;4972311;28;20054;-93
2020/12/16 19:06:16;;;;;;;;;;;;;;;;;;;;;
2020/12/16 19:08:47;;;;;;;23.95;14.57;;;8.10;99.90;;;;;;4974822;29;20078;-92
2020/12/16 19:11:18;;;;;;;23.05;15.30;;;8.10;99.90;;;;;;4959526;28;20016;-92
2020/12/16 19:13:47;;;;;;;25.08;16.35;;;8.10;99.90;;;;;;4960724;28;20038;-92
2020/12/16 19:16:20;;;;;;;23.45;13.85;;;8.10;99.90;;;;;;4944547;28;20020;-93
2020/12/16 19:18:51;;;;;;;25.55;15.25;;;8.10;99.90;;;;;;4965343;28;20031;-93
2020/12/16 19:21:20;;;;;;;24.13;15.98;;;8.00;99.90;;;;;;4978128;28;20042;-92
2020/12/16 19:23:52;;;;;;;26.65;16.38;;;8.10;99.90;;;;;;4966198;28;20026;-93
2020/12/16 19:26:26;;;;;;;24.70;16.63;;;8.10;99.90;;;;;;4968980;28;20617;-93
2020/12/16 19:28:56;;;;;;;28.85;17.10;;;8.10;99.90;;;;;;4953468;29;20048;-92
2020/12/16 19:31:37;;;;;;;27.73;17.33;;;8.00;99.90;;;;;;4963352;28;20103;-96
2020/12/16 19:37:36;;;;;;;;;;;;;;;;;;;;;
2020/12/16 19:40:06;;;;;;;27.63;16.92;;;8.00;99.90;;;;;;4957792;29;20062;-93
2020/12/16 19:42:38;;;;;;;25.92;16.60;;;8.00;99.90;;;;;;4935707;29;20028;-93
2020/12/16 19:45:28;;;;;;;27.77;17.27;;;8.00;99.90;;;;;;4932739;28;20031;-94
2020/12/16 19:48:17;;;;;;;26.17;16.15;;;8.10;99.90;;;;;;4945070;29;20019;-94
2020/12/16 19:50:54;;;;;;;;;;;;;;;;;;;;;
2020/12/16 19:53:21;;;;;;;24.85;16.15;;;8.10;99.90;;;;;;4983824;28;20054;-95
2020/12/16 19:55:52;;;;;;;23.38;14.98;;;8.10;99.90;;;;;;4955590;29;20031;-91
2020/12/16 19:58:19;;;;;;;26.92;16.40;;;8.10;99.90;;;;;;4956670;29;20031;-94
2020/12/16 20:01:24;;;;;;;23.45;16.10;;;8.10;99.90;;;;;;4979849;28;20106;-92
2020/12/16 20:03:57;;;;;;;25.50;16.25;;;8.10;99.90;;;;;;4953523;28;20035;-94
2020/12/16 20:06:51;;;;;;;;;;;;;;;;;;;;;
2020/12/16 20:09:26;;;;;;;27.50;17.75;;;8.10;99.90;;;;;;4975246;28;20114;-92
2020/12/16 20:12:02;;;;;;;24.15;15.98;;;8.10;99.90;;;;;;4970190;28;20059;-94
2020/12/16 20:18:42;;;;;;;;;;;;;;;;;;;;;
2020/12/16 20:34:09;;;;;;;24.17;15.73;;;8.40;99.90;;;;;;4906789;29;20389;-96
2020/12/16 20:36:36;;;;;;;23.88;14.88;;;8.50;99.90;;;;;;4930563;29;20063;-95
2020/12/16 20:46:02;;;;;;;25.35;14.52;;;8.50;99.90;;;;;;4912118;29;20382;-92
2020/12/16 20:48:29;;;;;;;22.45;14.68;;;8.50;99.90;;;;;;4906335;29;20040;-92
2020/12/16 20:51:27;;;;;;;21.20;14.68;;;8.60;99.90;;;;;;4901278;29;20020;-92
2020/12/16 20:57:42;;;;;;;23.33;15.13;;;8.60;99.90;;;;;;4856642;29;20054;-92
2020/12/16 21:01:02;;;;;;;23.38;13.07;;;8.70;99.90;;;;;;4855458;29;20049;-92
2020/12/16 21:03:28;;;;;;;25.42;16.17;;;8.70;99.90;;;;;;4845410;29;20095;-93
2020/12/16 21:06:33;;;;;;;27.05;15.38;;;8.70;99.90;;;;;;4845405;29;20026;-92
2020/12/16 21:09:02;;;;;;;21.98;13.85;;;8.80;99.90;;;;;;4788915;29;20316;-91
2020/12/16 21:11:28;;;;;;;19.65;14.00;;;8.70;99.90;;;;;;4773131;30;20137;-94
2020/12/16 21:14:00;;;;;;;23.95;15.23;;;8.80;99.90;;;;;;4791065;29;20027;-96
2020/12/16 21:18:59;;;;;;;22.85;15.73;;;8.80;99.90;;;;;;5011506;28;20097;-95
2020/12/16 21:21:36;;;;;;;;;;;;;;;;;;;;;
2020/12/16 21:24:11;;;;;;;21.98;13.75;;;8.80;99.90;;;;;;5007197;28;20062;-93
2020/12/16 21:26:42;;;;;;;21.58;13.98;;;8.90;99.90;;;;;;4983254;28;20015;-93
2020/12/16 21:29:56;;;;;;;20.63;13.32;;;8.90;99.90;;;;;;4981480;28;20030;-95
2020/12/16 21:32:36;;;;;;;19.55;12.38;;;8.90;99.90;;;;;;4999826;28;20042;-95
2020/12/16 21:35:03;;;;;;;20.55;13.68;;;9.00;99.90;;;;;;4975568;28;20027;-90
2020/12/16 21:37:57;;;;;;;18.92;14.38;;;8.90;99.90;;;;;;4992440;28;20039;-89
2020/12/16 21:40:58;;;;;;;18.13;12.10;;;8.90;99.90;;;;;;4978795;28;20023;-89
2020/12/16 21:44:34;;;;;;;20.60;13.73;;;8.90;99.90;;;;;;4993879;28;20042;-91
2020/12/16 21:50:02;;;;;;;23.35;15.05;;;9.00;99.90;;;;;;4998842;28;20026;-92
2020/12/16 21:52:38;;;;;;;24.55;15.15;;;9.00;99.90;;;;;;5011781;28;20027;-92
2020/12/16 21:55:27;;;;;;;;;;;;;;;;;;;;;
2020/12/16 21:57:58;;;;;;;;;;;9.00;99.90;;;;;;5007533;28;20066;-92
2020/12/16 22:00:40;;;;;;;23.92;13.68;;;9.00;99.90;;;;;;5006250;28;19909;-92
2020/12/16 22:05:57;;;;;;;22.05;13.93;;;9.10;99.90;;;;;;5258760;23;20447;-94
2020/12/16 22:08:35;;;;;;;19.23;12.70;;;9.00;99.90;;;;;;4965407;28;20029;-92
2020/12/16 22:11:22;;;;;;;;;;;;;;;;;;;;;
2020/12/16 22:14:07;;;;;;;19.35;12.68;;;9.10;99.90;;;;;;4870725;29;20026;-92
2020/12/16 22:16:33;;;;;;;18.50;12.05;;;9.10;99.90;;;;;;4869902;29;20029;-93
2020/12/16 22:19:01;;;;;;;18.40;12.15;;;9.10;99.90;;;;;;4869791;29;20025;-94
2020/12/16 22:21:32;;;;;;;18.92;12.57;;;9.00;99.90;;;;;;4869848;29;20030;-93
2020/12/16 22:24:01;;;;;;;18.27;11.20;;;9.00;99.90;;;;;;4870325;29;20066;-92
2020/12/16 22:26:27;;;;;;;17.23;12.27;;;9.00;99.90;;;;;;4868326;29;20018;-90
2020/12/16 22:28:58;;;;;;;16.42;11.70;;;9.00;99.90;;;;;;4853372;29;20041;-91
2020/12/16 22:31:25;;;;;;;16.67;11.35;;;9.00;99.90;;;;;;4867625;29;20062;-90
2020/12/16 22:33:51;;;;;;;17.20;11.93;;;9.00;99.90;;;;;;4884761;29;20018;-90
2020/12/16 22:36:17;;;;;;;16.55;11.40;;;9.00;99.90;;;;;;4870030;29;20037;-88
2020/12/16 22:38:45;;;;;;;16.08;10.32;;;9.10;99.90;;;;;;4886060;29;20059;-90